Terminal Aerodrome Forecast
Issued by NWS

Home | Current Version | Previous Version | Text Only | Print | Product List | Glossary On
Versions: 1 2 3 4 5 6 7 8 9 10 11 12
329
FTUS44 KEPZ 031130
TAFDMN
TAF
KDMN 031130Z 0312/0412 05006KT P6SM SKC
     FM032000 13007KT P6SM FEW140
     FM040800 04011KT P6SM FEW120=

USA.gov is the U.S. government's official web portal to all federal, state and local government web resources and services.